Time;durP1;ratioP1;P1;durP2;ratioP2;P2;SDS_P1;SDS_P2;PMS_P1;PMS_P2;Temp;Humidity;BMP_temperature;BMP_pressure;BME280_temperature;BME280_humidity;BME280_pressure;Samples;Min_cycle;Max_cycle;Signal;HPM_P1;HPM_P2
2021/04/07 00:02:17;;;;;;;5.10;3.08;;;;;;;-0.53;73.27;95607.19;5109925;28;20429;-67
2021/04/07 00:04:48;;;;;;;5.05;3.20;;;;;;;-0.58;73.57;95604.50;5110820;28;20047;-66
2021/04/07 00:07:14;;;;;;;8.45;3.35;;;;;;;-0.61;73.83;95607.72;5110390;28;20046;-66
2021/04/07 00:09:40;;;;;;;5.68;3.33;;;;;;;-0.59;73.92;95606.38;5110369;28;20054;-66
2021/04/07 00:12:07;;;;;;;6.43;3.65;;;;;;;-0.58;74.00;95608.00;5110463;28;20036;-67
2021/04/07 00:14:33;;;;;;;8.07;3.30;;;;;;;-0.49;73.79;95605.59;5110043;28;20048;-66
2021/04/07 00:16:59;;;;;;;7.00;3.13;;;;;;;-0.55;74.09;95602.13;5111192;28;20444;-66
2021/04/07 00:19:25;;;;;;;5.80;3.53;;;;;;;-0.64;74.33;95608.25;5109558;28;20048;-66
2021/04/07 00:21:51;;;;;;;7.10;3.88;;;;;;;-0.60;74.52;95606.66;5111296;27;20141;-66
2021/04/07 00:24:17;;;;;;;9.05;3.72;;;;;;;-0.63;74.66;95615.19;5109513;28;20079;-66
2021/04/07 00:26:43;;;;;;;8.63;3.45;;;;;;;-0.67;74.69;95608.81;5110245;28;20043;-66
2021/04/07 00:29:09;;;;;;;6.85;3.28;;;;;;;-0.68;74.26;95613.34;5109770;28;20050;-66
2021/04/07 00:31:36;;;;;;;7.13;3.63;;;;;;;-0.73;74.56;95616.00;5110166;28;20687;-66
2021/04/07 00:34:02;;;;;;;6.20;3.10;;;;;;;-0.74;74.32;95614.38;5109958;28;20039;-67
2021/04/07 00:36:28;;;;;;;9.93;4.03;;;;;;;-0.74;74.37;95608.22;5109869;28;20047;-66
2021/04/07 00:38:54;;;;;;;5.32;3.35;;;;;;;-0.75;74.56;95609.31;5110769;28;20417;-66
2021/04/07 00:41:20;;;;;;;6.93;3.92;;;;;;;-0.85;74.60;95610.09;5109303;28;20043;-66
2021/04/07 00:43:46;;;;;;;7.18;3.50;;;;;;;-0.86;74.85;95605.81;5110819;28;20036;-66
2021/04/07 00:46:12;;;;;;;7.30;3.30;;;;;;;-0.81;74.67;95617.31;5109230;28;20058;-67
2021/04/07 00:48:39;;;;;;;7.57;3.38;;;;;;;-0.83;74.83;95611.44;5110300;28;20062;-66
2021/04/07 00:51:05;;;;;;;6.60;3.50;;;;;;;-0.86;75.05;95617.31;5109754;28;20047;-66
2021/04/07 00:53:31;;;;;;;6.55;3.92;;;;;;;-0.89;75.44;95617.84;5109929;28;20046;-66
2021/04/07 00:55:57;;;;;;;8.98;4.00;;;;;;;-0.85;75.17;95621.56;5110049;28;20122;-66
2021/04/07 00:58:25;;;;;;;6.63;3.63;;;;;;;-0.81;75.39;95619.19;5108980;28;20046;-67
2021/04/07 01:00:51;;;;;;;6.50;3.33;;;;;;;-0.88;75.64;95619.44;5110543;28;20047;-66
2021/04/07 01:03:17;;;;;;;11.88;3.78;;;;;;;-0.92;76.12;95629.06;5108661;28;20514;-66
2021/04/07 01:05:44;;;;;;;6.53;3.83;;;;;;;-0.94;76.13;95623.19;5110793;28;20035;-66
2021/04/07 01:08:10;;;;;;;5.68;3.60;;;;;;;-0.97;76.47;95626.38;5109137;28;20044;-66
2021/04/07 01:10:37;;;;;;;9.13;3.67;;;;;;;-0.96;76.56;95627.97;5111659;28;20051;-67
2021/04/07 01:13:04;;;;;;;5.82;3.42;;;;;;;-0.95;76.52;95623.41;5112768;28;20499;-67
2021/04/07 01:15:31;;;;;;;6.15;3.70;;;;;;;-1.06;76.73;95628.72;5114434;28;20533;-66
2021/04/07 01:17:57;;;;;;;6.03;3.60;;;;;;;-1.08;77.43;95630.88;5114208;28;20039;-66
2021/04/07 01:20:24;;;;;;;7.22;3.97;;;;;;;-1.02;77.96;95629.00;5113113;28;20040;-66
2021/04/07 01:22:55;;;;;;;10.82;4.22;;;;;;;-1.06;78.41;95633.28;5114244;27;20063;-66
2021/04/07 01:25:22;;;;;;;10.55;4.40;;;;;;;-1.05;79.03;95624.19;5112601;28;20062;-66
2021/04/07 01:27:48;;;;;;;6.07;4.03;;;;;;;-1.12;79.79;95628.97;5113930;28;20039;-66
2021/04/07 01:30:17;;;;;;;6.43;4.50;;;;;;;-1.06;80.30;95633.28;5112762;28;20039;-66
2021/04/07 01:32:43;;;;;;;11.30;4.85;;;;;;;-1.27;81.23;95642.28;5114145;28;20380;-66
2021/04/07 01:35:11;;;;;;;9.63;5.20;;;;;;;-1.29;81.90;95637.19;5112394;28;20040;-67
2021/04/07 01:37:37;;;;;;;7.32;5.20;;;;;;;-1.16;82.06;95638.56;5113731;28;20141;-66
2021/04/07 01:40:07;;;;;;;10.55;4.97;;;;;;;-1.27;82.27;95631.59;5113002;28;20051;-67
2021/04/07 01:42:34;;;;;;;10.40;5.22;;;;;;;-1.25;82.35;95640.97;5113322;28;20406;-66
2021/04/07 01:45:03;;;;;;;14.25;5.03;;;;;;;-1.19;82.01;95634.56;5113525;28;20042;-66
2021/04/07 01:47:30;;;;;;;7.63;4.50;;;;;;;-1.14;82.25;95636.47;5112403;28;20039;-66
2021/04/07 01:49:59;;;;;;;9.38;5.28;;;;;;;-1.11;82.18;95635.94;5113798;28;20043;-68
2021/04/07 01:52:25;;;;;;;9.18;5.07;;;;;;;-1.11;81.99;95641.25;5112538;27;20035;-68
2021/04/07 01:54:51;;;;;;;7.65;4.93;;;;;;;-1.12;82.22;95634.31;5113949;28;20573;-66
2021/04/07 01:57:17;;;;;;;9.32;5.05;;;;;;;-1.24;82.17;95628.41;5112022;28;20044;-66
2021/04/07 01:59:44;;;;;;;10.23;5.63;;;;;;;-1.29;82.41;95639.06;5113392;28;20131;-67
2021/04/07 02:02:10;;;;;;;7.95;5.15;;;;;;;-1.30;82.82;95638.25;5112230;28;20035;-66
2021/04/07 02:04:36;;;;;;;10.05;5.47;;;;;;;-1.17;82.57;95650.34;5112926;28;20044;-66
2021/04/07 02:07:11;;;;;;;10.45;5.10;;;;;;;-1.36;83.23;95640.13;5112793;28;20047;-67
2021/04/07 02:09:37;;;;;;;8.80;5.45;;;;;;;-1.31;83.62;95641.97;5112651;28;20043;-66
2021/04/07 02:12:04;;;;;;;8.10;4.97;;;;;;;-1.22;83.59;95644.97;5113019;28;20038;-67
2021/04/07 02:14:30;;;;;;;9.27;5.50;;;;;;;-1.35;83.82;95636.38;5112058;28;20067;-67
2021/04/07 02:16:59;;;;;;;8.48;5.78;;;;;;;-1.35;84.40;95652.41;5113413;28;20475;-66
2021/04/07 02:19:27;;;;;;;13.27;6.90;;;;;;;-1.37;84.78;95643.81;5111483;28;20065;-66
2021/04/07 02:22:05;;;;;;;12.32;6.80;;;;;;;-1.40;84.86;95643.56;5112984;27;20051;-66
2021/04/07 02:24:32;;;;;;;13.68;7.72;;;;;;;-1.49;84.95;95635.22;5112440;28;20397;-68
2021/04/07 02:27:00;;;;;;;13.68;7.20;;;;;;;-1.51;85.15;95632.03;5111941;28;20040;-68
2021/04/07 02:29:26;;;;;;;13.07;7.72;;;;;;;-1.51;84.76;95632.03;5112600;28;20097;-67
2021/04/07 02:31:52;;;;;;;13.15;7.03;;;;;;;-1.54;84.76;95631.72;5113089;28;20039;-67
2021/04/07 02:34:19;;;;;;;11.98;7.45;;;;;;;-1.49;84.71;95640.56;5112428;28;20494;-67
2021/04/07 02:36:45;;;;;;;11.13;7.13;;;;;;;-1.51;84.63;95634.69;5111634;28;20050;-69
2021/04/07 02:39:11;;;;;;;10.13;6.82;;;;;;;-1.53;84.60;95636.81;5112486;28;20036;-69
2021/04/07 02:41:37;;;;;;;12.52;7.40;;;;;;;-1.50;84.87;95643.50;5111699;28;20047;-68
2021/04/07 02:44:03;;;;;;;13.25;7.75;;;;;;;-1.40;84.65;95638.22;5112240;28;20609;-67
2021/04/07 02:46:29;;;;;;;12.23;7.15;;;;;;;-1.46;84.59;95648.06;5111949;28;20043;-69
2021/04/07 02:48:55;;;;;;;13.90;7.22;;;;;;;-1.38;84.59;95652.91;5112149;28;20525;-66
2021/04/07 02:51:22;;;;;;;11.85;7.00;;;;;;;-1.42;84.43;95646.47;5112260;27;20055;-69
2021/04/07 02:53:48;;;;;;;13.52;7.47;;;;;;;-1.48;84.75;95642.16;5112151;28;20052;-66
2021/04/07 02:56:14;;;;;;;11.90;6.95;;;;;;;-1.50;84.92;95644.31;5112043;28;20042;-69
2021/04/07 02:58:40;;;;;;;12.32;7.45;;;;;;;-1.50;84.74;95649.66;5111302;28;20043;-66
2021/04/07 03:01:06;;;;;;;12.60;7.40;;;;;;;-1.40;84.81;95649.69;5112032;28;20044;-67
2021/04/07 03:03:32;;;;;;;12.93;7.40;;;;;;;-1.46;84.80;95642.72;5111407;28;20119;-69
2021/04/07 03:05:58;;;;;;;11.73;8.02;;;;;;;-1.52;85.21;95646.41;5112484;28;20410;-69
2021/04/07 03:08:25;;;;;;;15.88;8.68;;;;;;;-1.63;85.31;95650.09;5110835;28;20100;-69
2021/04/07 03:10:50;;;;;;;17.55;8.23;;;;;;;-1.68;85.54;95642.06;5111852;28;20040;-69
2021/04/07 03:13:17;;;;;;;11.20;7.80;;;;;;;-1.62;85.54;95646.34;5110915;28;20063;-69
2021/04/07 03:15:43;;;;;;;13.93;8.00;;;;;;;-1.78;85.85;95648.13;5111614;28;20036;-69
2021/04/07 03:18:09;;;;;;;13.35;8.70;;;;;;;-1.78;85.96;95652.66;5111044;28;20089;-66
2021/04/07 03:20:35;;;;;;;17.30;9.77;;;;;;;-1.90;86.58;95656.31;5111150;28;20040;-69
2021/04/07 03:23:01;;;;;;;19.15;9.48;;;;;;;-1.90;87.08;95666.19;5111942;27;20120;-71
2021/04/07 03:25:27;;;;;;;17.48;10.35;;;;;;;-1.93;87.48;95667.53;5110624;28;20035;-69
2021/04/07 03:27:53;;;;;;;17.05;9.60;;;;;;;-1.88;87.54;95675.56;5111928;28;20043;-69
2021/04/07 03:30:20;;;;;;;18.10;9.80;;;;;;;-1.85;87.37;95685.72;5110366;28;20085;-69
2021/04/07 03:32:46;;;;;;;21.65;9.73;;;;;;;-1.75;87.45;95689.53;5110989;28;20494;-69
2021/04/07 03:35:12;;;;;;;15.75;10.02;;;;;;;-1.62;87.19;95697.91;5110092;28;20039;-67
2021/04/07 03:37:38;;;;;;;15.50;9.10;;;;;;;-1.49;87.29;95704.66;5111373;28;20533;-69
2021/04/07 03:40:05;;;;;;;14.48;9.18;;;;;;;-1.46;86.58;95704.16;5110392;28;20047;-69
2021/04/07 03:42:32;;;;;;;16.40;9.68;;;;;;;-1.60;86.27;95708.31;5110987;28;20069;-68
2021/04/07 03:44:58;;;;;;;15.90;8.93;;;;;;;-1.46;86.09;95708.66;5111419;28;20040;-69
2021/04/07 03:47:24;;;;;;;17.38;10.07;;;;;;;-1.44;85.47;95712.69;5110009;28;20127;-67
2021/04/07 03:49:50;;;;;;;16.05;9.10;;;;;;;-1.40;85.14;95713.78;5111417;28;20101;-66
2021/04/07 03:52:16;;;;;;;15.20;8.75;;;;;;;-1.40;84.75;95719.13;5110029;28;20066;-67
2021/04/07 03:54:43;;;;;;;16.40;8.88;;;;;;;-1.36;84.28;95714.06;5111394;28;20550;-69
2021/04/07 03:57:10;;;;;;;14.77;8.80;;;;;;;-1.36;83.75;95724.75;5110591;28;20100;-69
2021/04/07 03:59:36;;;;;;;11.10;7.45;;;;;;;-1.32;83.76;95723.19;5111171;28;20436;-67
2021/04/07 04:02:03;;;;;;;13.57;8.43;;;;;;;-1.35;83.27;95727.19;5110003;28;20035;-67
2021/04/07 04:04:29;;;;;;;11.57;7.75;;;;;;;-1.35;83.06;95732.53;5110750;28;20047;-67
2021/04/07 04:06:54;;;;;;;12.73;7.72;;;;;;;-1.35;82.75;95737.88;5110854;28;20044;-67
2021/04/07 04:09:20;;;;;;;16.27;8.55;;;;;;;-1.34;82.52;95736.78;5109842;28;20184;-67
2021/04/07 04:11:46;;;;;;;11.65;8.18;;;;;;;-1.44;82.46;95733.25;5110950;28;20471;-67
2021/04/07 04:14:12;;;;;;;12.65;7.97;;;;;;;-1.44;82.77;95739.41;5109483;28;20075;-67
2021/04/07 04:16:41;;;;;;;12.93;8.20;;;;;;;-1.40;82.49;95735.16;5111062;28;20447;-67
2021/04/07 04:19:07;;;;;;;11.93;7.18;;;;;;;-1.36;82.36;95746.94;5109431;28;20097;-67
2021/04/07 04:21:33;;;;;;;11.00;7.20;;;;;;;-1.41;82.32;95751.41;5111546;28;20040;-67
2021/04/07 04:23:59;;;;;;;11.93;7.85;;;;;;;-1.51;83.22;95757.50;5110148;28;20574;-68
2021/04/07 04:26:25;;;;;;;15.93;8.65;;;;;;;-1.44;83.39;95755.41;5110020;28;20066;-68
2021/04/07 04:28:51;;;;;;;13.50;8.73;;;;;;;-1.36;83.44;95764.81;5110028;28;20074;-68
2021/04/07 04:31:17;;;;;;;14.63;8.43;;;;;;;-1.38;83.67;95765.06;5109792;28;20143;-67
2021/04/07 04:33:44;;;;;;;13.02;8.30;;;;;;;-1.32;83.61;95774.72;5110508;28;20082;-67
2021/04/07 04:36:10;;;;;;;13.73;8.02;;;;;;;-1.34;83.57;95774.19;5109463;28;20510;-68
2021/04/07 04:38:36;;;;;;;15.63;8.00;;;;;;;-1.41;83.90;95783.47;5110877;28;20039;-68
2021/04/07 04:41:02;;;;;;;14.88;8.45;;;;;;;-1.39;84.07;95790.19;5109243;28;20138;-67
2021/04/07 04:43:28;;;;;;;14.30;7.78;;;;;;;-1.34;84.06;95784.88;5111079;28;20044;-67
2021/04/07 04:45:54;;;;;;;12.10;8.18;;;;;;;-1.39;84.59;95794.72;5113000;28;20086;-68
2021/04/07 04:48:20;;;;;;;14.15;7.90;;;;;;;-1.40;84.41;95799.25;5114481;28;20063;-68
2021/04/07 04:50:48;;;;;;;12.93;8.05;;;;;;;-1.40;84.46;95795.78;5113977;28;20494;-68
2021/04/07 04:53:14;;;;;;;17.23;8.45;;;;;;;-1.33;84.20;95805.16;5114286;27;20050;-68
2021/04/07 04:55:40;;;;;;;15.45;8.40;;;;;;;-1.33;83.73;95799.03;5114420;28;20036;-68
2021/04/07 04:58:06;;;;;;;12.48;7.75;;;;;;;-1.34;83.00;95808.09;5113395;28;20046;-68
2021/04/07 05:00:32;;;;;;;12.35;7.30;;;;;;;-1.34;82.36;95808.09;5114583;28;20067;-68
2021/04/07 05:02:58;;;;;;;12.63;6.90;;;;;;;-1.30;81.46;95813.75;5113505;28;20071;-68
2021/04/07 05:05:24;;;;;;;12.18;6.85;;;;;;;-1.28;81.32;95817.75;5114033;28;20039;-68
2021/04/07 05:07:51;;;;;;;12.98;7.32;;;;;;;-1.23;80.39;95814.31;5113555;28;20039;-68
2021/04/07 05:10:17;;;;;;;11.63;7.10;;;;;;;-1.21;80.15;95830.91;5114170;28;20449;-68
2021/04/07 05:12:43;;;;;;;15.63;7.78;;;;;;;-1.22;80.33;95823.94;5113283;28;20047;-68
2021/04/07 05:15:10;;;;;;;11.00;6.93;;;;;;;-1.28;80.19;95827.66;5113777;28;20073;-68
2021/04/07 05:17:36;;;;;;;12.02;6.70;;;;;;;-1.34;80.03;95835.63;5113658;28;20105;-68
2021/04/07 05:20:04;;;;;;;11.15;6.20;;;;;;;-1.30;79.10;95835.94;5113438;28;20114;-68
2021/04/07 05:22:30;;;;;;;13.23;6.65;;;;;;;-1.25;78.91;95843.97;5114422;27;20052;-68
2021/04/07 05:24:57;;;;;;;12.85;6.55;;;;;;;-1.24;78.38;95855.47;5113457;28;20467;-68
2021/04/07 05:27:23;;;;;;;10.45;6.13;;;;;;;-1.33;78.22;95855.13;5113469;28;20042;-68
2021/04/07 05:29:49;;;;;;;11.20;6.10;;;;;;;-1.38;78.33;95855.88;5112990;28;20054;-68
2021/04/07 05:32:15;;;;;;;11.05;6.38;;;;;;;-1.35;77.59;95858.06;5113849;28;20483;-68
2021/04/07 05:34:41;;;;;;;10.45;5.65;;;;;;;-1.37;77.92;95862.81;5112753;28;20043;-68
2021/04/07 05:37:07;;;;;;;14.88;5.97;;;;;;;-1.38;77.58;95869.22;5113518;28;20043;-68
2021/04/07 05:39:33;;;;;;;11.27;6.07;;;;;;;-1.42;78.40;95878.81;5113368;28;20073;-68
2021/04/07 05:42:00;;;;;;;12.00;6.30;;;;;;;-1.43;78.19;95879.88;5113681;28;20074;-68
2021/04/07 05:44:26;;;;;;;11.32;6.40;;;;;;;-1.33;78.04;95884.50;5113078;28;20032;-68
2021/04/07 05:46:52;;;;;;;12.23;6.47;;;;;;;-1.27;78.12;95883.47;5113257;28;20074;-68
2021/04/07 05:49:18;;;;;;;12.27;6.65;;;;;;;-1.34;77.93;95891.72;5113209;28;20556;-68
2021/04/07 05:51:44;;;;;;;11.43;6.85;;;;;;;-1.23;78.05;95899.81;5113025;27;20118;-68
2021/04/07 05:54:10;;;;;;;11.95;6.88;;;;;;;-1.22;77.95;95896.88;5113195;28;20040;-69
2021/04/07 05:56:36;;;;;;;9.50;6.10;;;;;;;-1.14;77.31;95892.94;5111785;28;20050;-68
2021/04/07 05:59:03;;;;;;;13.00;6.30;;;;;;;-1.14;77.55;95904.44;5113247;28;20078;-70
2021/04/07 06:01:29;;;;;;;12.30;6.88;;;;;;;-1.17;77.48;95904.94;5112385;28;20039;-68
2021/04/07 06:03:55;;;;;;;10.27;5.97;;;;;;;-1.12;77.65;95922.88;5113487;28;20119;-73
2021/04/07 06:06:22;;;;;;;9.27;5.75;;;;;;;-1.01;77.67;95919.22;5112226;28;20134;-72
2021/04/07 06:08:49;;;;;;;11.85;5.90;;;;;;;-1.09;77.75;95925.06;5113305;28;20093;-72
2021/04/07 06:11:16;;;;;;;12.20;5.93;;;;;;;-1.12;77.63;95926.34;5112663;28;20036;-72
2021/04/07 06:13:42;;;;;;;9.50;5.97;;;;;;;-1.19;77.53;95933.78;5112504;28;20050;-73
2021/04/07 06:16:09;;;;;;;11.20;6.40;;;;;;;-1.15;77.78;95934.06;5111569;28;20051;-72
2021/04/07 06:18:35;;;;;;;11.73;6.13;;;;;;;-1.25;77.63;95934.81;5106821;28;20047;-72
2021/04/07 06:21:01;;;;;;;11.27;5.70;;;;;;;-1.25;78.02;95941.97;5109226;28;20070;-73
2021/04/07 06:23:27;;;;;;;12.38;6.20;;;;;;;-1.21;77.85;95948.44;5107687;28;20050;-72
2021/04/07 06:25:53;;;;;;;12.23;6.60;;;;;;;-1.36;78.32;95949.94;5109773;28;20471;-72
2021/04/07 06:28:19;;;;;;;15.55;6.25;;;;;;;-1.39;78.29;95957.63;5108715;28;20047;-73
2021/04/07 06:30:46;;;;;;;10.73;6.40;;;;;;;-1.40;78.24;95959.50;5109424;28;20055;-73
2021/04/07 06:33:16;;;;;;;11.27;6.30;;;;;;;-1.28;77.55;95964.69;5108616;28;20047;-73
2021/04/07 06:35:45;;;;;;;9.45;5.90;;;;;;;-1.24;78.04;95968.47;5109136;28;20130;-74
2021/04/07 06:38:12;;;;;;;12.65;6.40;;;;;;;-1.22;77.62;95970.88;5108797;28;20055;-73
2021/04/07 06:40:38;;;;;;;10.88;5.95;;;;;;;-1.05;77.40;95977.72;5108779;28;20131;-73
2021/04/07 06:43:05;;;;;;;10.45;5.80;;;;;;;-0.93;76.78;95982.91;5109463;28;20051;-73
2021/04/07 06:45:33;;;;;;;10.10;5.70;;;;;;;-0.90;75.75;95984.25;5108452;28;20473;-73
2021/04/07 06:48:00;;;;;;;11.52;6.20;;;;;;;-0.91;75.36;95994.16;5109630;28;20968;-73
2021/04/07 06:50:27;;;;;;;9.02;5.43;;;;;;;-0.85;75.77;95993.13;5108633;28;20558;-73
2021/04/07 06:52:58;;;;;;;9.88;5.60;;;;;;;-0.70;75.47;96005.03;5108863;28;20051;-73
2021/04/07 06:55:24;;;;;;;10.07;5.45;;;;;;;-0.62;74.81;96000.03;5107988;28;20047;-73
2021/04/07 06:57:50;;;;;;;12.57;5.85;;;;;;;-0.66;74.63;96011.47;5108647;28;20044;-72
2021/04/07 07:00:17;;;;;;;7.82;5.25;;;;;;;-0.53;74.18;96005.69;5108582;28;20051;-75
2021/04/07 07:02:44;;;;;;;8.15;5.30;;;;;;;-0.51;73.78;96019.63;5108482;28;20122;-73
2021/04/07 07:05:11;;;;;;;9.70;4.88;;;;;;;-0.43;73.79;96029.84;5108621;28;20105;-72
2021/04/07 07:07:38;;;;;;;10.52;5.47;;;;;;;-0.41;74.07;96019.69;5107229;28;20051;-75
2021/04/07 07:10:04;;;;;;;13.73;5.50;;;;;;;-0.31;73.88;96030.47;5108263;28;20736;-75
2021/04/07 07:12:31;;;;;;;9.52;5.05;;;;;;;-0.31;73.11;96035.81;5108168;28;20043;-75
2021/04/07 07:15:01;;;;;;;8.82;4.90;;;;;;;-0.28;72.67;96035.28;5108795;28;20507;-75
2021/04/07 07:17:28;;;;;;;6.00;4.35;;;;;;;-0.37;72.15;96042.19;5108058;28;20514;-75
2021/04/07 07:19:55;;;;;;;8.50;5.13;;;;;;;-0.31;71.86;96041.19;5109094;28;20051;-75
2021/04/07 07:22:23;;;;;;;8.15;5.55;;;;;;;-0.23;73.52;96041.75;5110348;27;20047;-73
2021/04/07 07:24:54;;;;;;;7.28;4.60;;;;;;;-0.28;71.19;96051.34;5111451;28;20065;-72
2021/04/07 07:27:20;;;;;;;6.93;4.40;;;;;;;-0.28;71.98;96046.00;5111125;28;20397;-75
2021/04/07 07:29:55;;;;;;;9.65;5.25;;;;;;;-0.18;72.10;96049.81;5110544;28;20043;-75
2021/04/07 07:32:32;;;;;;;8.43;5.05;;;;;;;-0.12;71.52;96064.84;5111367;28;20495;-75
2021/04/07 07:35:13;;;;;;;6.93;4.38;;;;;;;-0.07;70.91;96062.19;5110880;28;20043;-75
2021/04/07 07:37:40;;;;;;;7.38;4.70;;;;;;;-0.07;70.17;96067.56;5111123;28;20043;-75
2021/04/07 07:40:25;;;;;;;7.95;4.20;;;;;;;-0.19;69.58;96081.13;5110575;28;20046;-75
2021/04/07 07:42:51;;;;;;;7.05;4.20;;;;;;;-0.10;70.90;96073.44;5110725;28;20040;-72
2021/04/07 07:45:27;;;;;;;8.18;4.32;;;;;;;-0.10;70.65;96079.59;5111336;28;20050;-73
2021/04/07 07:48:04;;;;;;;6.88;3.95;;;;;;;-0.04;70.56;96080.44;5110510;28;20054;-73
2021/04/07 07:50:44;;;;;;;6.70;4.30;;;;;;;0.11;70.89;96083.22;5111124;28;20043;-73
2021/04/07 07:53:19;;;;;;;6.70;4.53;;;;;;;0.31;70.51;96089.75;5109685;28;20043;-73
2021/04/07 07:55:50;;;;;;;7.30;4.40;;;;;;;0.36;69.14;96089.78;5110809;28;20042;-74
2021/04/07 07:58:17;;;;;;;7.90;4.40;;;;;;;0.43;69.17;96099.22;5110454;28;20122;-71
2021/04/07 08:00:44;;;;;;;7.35;4.65;;;;;;;0.37;69.09;96104.81;5108503;28;20046;-72
2021/04/07 08:03:12;;;;;;;6.70;4.03;;;;;;;0.30;68.40;96104.22;5107914;28;20039;-72
2021/04/07 08:05:39;;;;;;;9.98;4.90;;;;;;;0.38;70.14;96107.22;5107122;28;20387;-71
2021/04/07 08:08:07;;;;;;;11.15;4.63;;;;;;;0.55;68.54;96106.22;5107676;28;20044;-72
2021/04/07 08:10:35;;;;;;;10.57;3.97;;;;;;;0.66;67.98;96114.03;5108984;28;20510;-72
2021/04/07 08:13:03;;;;;;;7.00;4.22;;;;;;;0.82;66.88;96122.16;5110290;28;20397;-73
2021/04/07 08:15:31;;;;;;;7.10;4.22;;;;;;;0.91;66.48;96125.97;5110447;28;20464;-72
2021/04/07 08:17:58;;;;;;;7.57;4.20;;;;;;;1.35;67.69;96122.88;5110395;28;20040;-72
2021/04/07 08:20:26;;;;;;;9.18;4.60;;;;;;;1.33;65.46;96133.06;5110033;28;20448;-72
2021/04/07 08:22:53;;;;;;;9.68;5.00;;;;;;;1.14;66.31;96130.84;5110178;27;20040;-72
2021/04/07 08:25:21;;;;;;;7.30;4.10;;;;;;;0.92;66.28;96138.28;5110168;28;20043;-72
2021/04/07 08:27:51;;;;;;;7.90;4.38;;;;;;;0.71;65.96;96137.38;5109876;28;20044;-72
2021/04/07 08:30:19;;;;;;;7.93;4.07;;;;;;;0.61;67.30;96148.06;5110602;28;20040;-73
2021/04/07 08:32:47;;;;;;;8.38;4.47;;;;;;;0.57;66.25;96142.41;5109940;28;20047;-71
2021/04/07 08:35:14;;;;;;;8.02;4.35;;;;;;;0.58;69.11;96144.03;5109982;28;20043;-72
2021/04/07 08:37:40;;;;;;;6.38;4.72;;;;;;;0.54;68.63;96148.28;5110022;28;20048;-72
2021/04/07 08:40:11;;;;;;;6.72;4.30;;;;;;;0.66;68.90;96143.53;5109457;28;20063;-72
2021/04/07 08:42:38;;;;;;;8.20;4.30;;;;;;;0.74;67.99;96159.13;5110520;28;20063;-73
2021/04/07 08:45:07;;;;;;;6.05;3.85;;;;;;;0.86;67.23;96158.09;5106697;28;20587;-73
2021/04/07 08:47:43;;;;;;;10.88;5.25;;;;;;;0.96;67.23;96156.28;5105088;28;20047;-73
2021/04/07 08:50:10;;;;;;;7.28;4.13;;;;;;;0.97;65.88;96157.06;5105474;28;20052;-73
2021/04/07 08:52:42;;;;;;;8.43;4.03;;;;;;;0.94;66.93;96162.94;5106058;28;20551;-73
2021/04/07 08:55:15;;;;;;;6.53;3.80;;;;;;;1.11;67.18;96171.63;5106166;28;20050;-73
2021/04/07 08:57:41;;;;;;;6.07;3.72;;;;;;;1.40;64.71;96166.63;5107049;28;20055;-73
2021/04/07 09:00:12;;;;;;;7.78;3.95;;;;;;;1.81;64.65;96172.88;5106584;28;20532;-73
2021/04/07 09:02:49;;;;;;;7.05;4.03;;;;;;;1.95;62.58;96177.75;5106701;28;20043;-73
2021/04/07 09:05:17;;;;;;;7.30;3.85;;;;;;;2.12;63.02;96175.59;5106836;28;20132;-73
2021/04/07 09:07:45;;;;;;;5.32;3.80;;;;;;;2.16;62.72;96173.19;5106580;28;20486;-72
2021/04/07 09:10:16;;;;;;;8.02;3.83;;;;;;;2.21;63.14;96186.63;5106907;28;20039;-74
2021/04/07 09:12:44;;;;;;;6.28;3.75;;;;;;;1.86;63.94;96185.50;5106316;28;20081;-73
2021/04/07 09:15:22;;;;;;;6.63;3.70;;;;;;;1.73;65.26;96200.25;5106571;28;20048;-73
2021/04/07 09:17:51;;;;;;;5.50;2.85;;;;;;;1.24;66.93;96210.56;5106621;28;20807;-73
2021/04/07 09:20:41;;;;;;;4.28;2.72;;;;;;;0.96;69.33;96217.13;5106319;28;20040;-75
2021/04/07 09:23:11;;;;;;;4.07;2.55;;;;;;;0.71;69.17;96210.56;5106256;28;20040;-73
2021/04/07 09:25:37;;;;;;;6.97;3.05;;;;;;;0.56;69.36;96207.78;5107589;28;20043;-73
2021/04/07 09:28:06;;;;;;;8.55;3.78;;;;;;;0.37;69.60;96217.28;5106883;28;20117;-72
2021/04/07 09:30:45;;;;;;;7.03;3.63;;;;;;;0.92;69.01;96213.34;5106388;28;20057;-72
2021/04/07 09:33:15;;;;;;;6.28;3.53;;;;;;;1.27;69.16;96226.94;5109689;28;20512;-73
2021/04/07 09:35:59;;;;;;;6.60;3.63;;;;;;;1.63;68.10;96224.41;5110431;28;20089;-73
2021/04/07 09:38:26;;;;;;;6.75;3.75;;;;;;;1.60;67.48;96221.41;5048264;28;20049;-73
2021/04/07 09:41:07;;;;;;;7.20;3.75;;;;;;;1.93;66.07;96223.66;5030388;28;20504;-73
2021/04/07 09:43:34;;;;;;;6.22;3.60;;;;;;;2.42;64.38;96230.41;5029081;28;20049;-74
2021/04/07 09:46:00;;;;;;;6.25;2.90;;;;;;;2.28;63.74;96224.75;5030250;28;20053;-73
2021/04/07 09:48:48;;;;;;;6.68;3.00;;;;;;;2.39;62.30;96228.25;5029153;28;20088;-75
2021/04/07 09:51:23;;;;;;;7.55;3.30;;;;;;;2.21;63.06;96230.41;5030371;28;20052;-77
2021/04/07 09:53:49;;;;;;;5.82;3.28;;;;;;;2.28;62.73;96225.56;5003676;28;20117;-76
2021/04/07 09:56:16;;;;;;;8.40;3.80;;;;;;;2.59;63.20;96225.56;4989147;28;20062;-74
2021/04/07 09:58:43;;;;;;;5.65;3.35;;;;;;;2.48;62.06;96240.09;5020537;28;20504;-76
2021/04/07 10:01:10;;;;;;;7.90;3.88;;;;;;;2.62;61.53;96230.41;5028558;28;20057;-76
2021/04/07 10:03:36;;;;;;;8.55;4.15;;;;;;;2.97;59.41;96234.09;5029844;28;20691;-73
2021/04/07 10:06:04;;;;;;;7.53;3.58;;;;;;;3.32;59.22;96244.78;5028432;28;20184;-74
2021/04/07 10:08:30;;;;;;;5.03;3.75;;;;;;;3.12;59.30;96234.06;5029689;28;20045;-73
2021/04/07 10:11:07;;;;;;;8.18;4.85;;;;;;;3.15;61.47;96233.53;5029236;28;20559;-74
2021/04/07 10:13:33;;;;;;;7.38;3.97;;;;;;;3.76;63.22;96235.16;5013526;28;20049;-74
2021/04/07 10:15:59;;;;;;;6.22;3.72;;;;;;;4.19;60.57;96226.31;5029497;28;20112;-74
2021/04/07 10:18:26;;;;;;;6.32;3.70;;;;;;;4.53;58.55;96238.19;5028483;28;20146;-74
2021/04/07 10:20:52;;;;;;;7.65;4.10;;;;;;;4.58;57.65;96243.53;5029631;28;20571;-73
2021/04/07 10:23:21;;;;;;;6.30;3.35;;;;;;;4.31;55.03;96235.94;5027371;28;20432;-73
2021/04/07 10:25:53;;;;;;;8.18;3.70;;;;;;;3.87;55.08;96251.03;5029605;28;20057;-73
2021/04/07 10:28:19;;;;;;;7.20;3.72;;;;;;;3.56;55.17;96252.25;5028894;28;20130;-73
2021/04/07 10:30:45;;;;;;;5.53;3.35;;;;;;;3.28;55.36;96243.72;5029284;28;20049;-73
2021/04/07 10:33:12;;;;;;;6.82;4.03;;;;;;;3.15;57.37;96252.38;5028014;28;20065;-73
2021/04/07 10:35:39;;;;;;;6.95;3.97;;;;;;;2.77;57.60;96259.97;5028837;28;20057;-73
2021/04/07 10:38:11;;;;;;;5.80;3.40;;;;;;;2.25;60.07;96262.94;5028679;28;20049;-73
2021/04/07 10:40:40;;;;;;;5.00;3.38;;;;;;;1.96;63.91;96270.66;5028555;28;20144;-76
2021/04/07 10:43:13;;;;;;;5.65;3.47;;;;;;;1.32;66.18;96270.97;5028434;28;20242;-75
2021/04/07 10:45:39;;;;;;;6.18;3.17;;;;;;;0.92;68.35;96277.69;5028139;28;20543;-75
2021/04/07 10:48:06;;;;;;;6.70;2.88;;;;;;;0.73;69.18;96286.16;5028324;28;20538;-75
2021/04/07 10:50:34;;;;;;;8.93;3.25;;;;;;;0.38;70.13;96288.56;5027989;28;20041;-75
2021/04/07 10:53:00;;;;;;;9.65;4.20;;;;;;;0.20;71.59;96276.31;5028607;28;20053;-74
2021/04/07 10:55:28;;;;;;;8.55;3.88;;;;;;;0.20;72.03;96281.69;5028075;28;20069;-73
2021/04/07 10:57:56;;;;;;;7.38;3.38;;;;;;;0.18;70.55;96287.28;5028395;28;20142;-72
2021/04/07 11:00:28;;;;;;;6.80;3.42;;;;;;;0.62;70.90;96279.09;5027977;28;20045;-73
2021/04/07 11:02:54;;;;;;;6.72;3.20;;;;;;;1.12;70.14;96271.66;5027699;28;20056;-73
2021/04/07 11:05:22;;;;;;;4.80;2.88;;;;;;;1.43;69.44;96278.78;5028483;28;20057;-72
2021/04/07 11:07:59;;;;;;;6.68;3.70;;;;;;;1.79;67.74;96277.06;5027857;28;20052;-75
2021/04/07 11:10:25;;;;;;;6.00;3.40;;;;;;;2.16;69.60;96276.06;5028409;28;20045;-73
2021/04/07 11:12:51;;;;;;;8.98;3.17;;;;;;;2.41;67.09;96272.59;5027734;28;20044;-73
2021/04/07 11:15:19;;;;;;;6.00;3.15;;;;;;;2.73;66.57;96275.03;5027567;28;20049;-73
2021/04/07 11:17:52;;;;;;;8.57;3.33;;;;;;;3.16;63.85;96278.19;5027985;28;20042;-73
2021/04/07 11:20:19;;;;;;;4.85;2.60;;;;;;;3.11;62.53;96270.13;5027535;28;20786;-73
2021/04/07 11:22:45;;;;;;;5.15;2.88;;;;;;;3.28;60.38;96275.19;5028288;28;20049;-75
2021/04/07 11:25:12;;;;;;;4.50;2.55;;;;;;;3.10;56.85;96282.78;5027018;28;20049;-75
2021/04/07 11:27:38;;;;;;;3.03;2.08;;;;;;;2.95;58.51;96277.41;5028282;28;20729;-75
2021/04/07 11:30:06;;;;;;;7.18;2.63;;;;;;;3.20;59.42;96273.88;5026998;28;20497;-75
2021/04/07 11:32:35;;;;;;;5.65;2.78;;;;;;;3.65;62.89;96274.81;5028303;28;20045;-75
2021/04/07 11:35:05;;;;;;;7.10;2.72;;;;;;;3.94;60.26;96277.66;5029296;28;20393;-72